ANA6027 EGLL-RJTT
Flight info
| Callsign | ANA6027 |
|---|---|
| Flight time | N/A |
| Altitude | 33000 |
| Route | DET1J DET L6 DVR L9 KONAN UL607 MATUG DCT GUBAX DCT KOMIB L984 SULUS Z650 VEMUT DCT PEPIK DCT BERVA DCT ERGOM DCT BUDOP DCT DVA DCT BULEN/N0484F350 DCT RIXEN UA17 YAVRU UA4 SIV UW706 TBN UN61 NOLGA DCT BARAD DCT SUBUT T916 BALUN/K0900F350 T916 BIMDO/K0904F370 T916 MIHOS N147 GENGA DCT SARIN/K0896S1130 A368 FKG W188 LIKMI W270 BUVEM/K0893S1190 W270 DKO W69 HUR B339 LADIX W34 VAPGU W100 ORAVA W201 UNSEK A326 DONVO G597 AGAVO/N0482F390 Y644 EGOBA Y697 LANAT Y71 XAC DCT |
| Aircraft | B77W/H-SDE1E2E3FGHIJ2J3J4J5M1RWXY/LB1D1 |
Departure
| Time | N/A |
|---|---|
| Airport | London Heathrow Airport (EGLL) |
Arrival
| Time | 2026-05-01 07:49 |
|---|---|
| Airport | Tokyo Haneda International Airport (RJTT) |
| Time | Latitude | Longitude | Altitude | Speed | Heading |
|---|---|---|---|---|---|
| 2026-05-01 07:23 | 34.71560 | 138.40830 | 34567 ft | 537 kts | 101° |
| 2026-05-01 07:23 | 34.71574 | 138.49876 | 34057 ft | 538 kts | 101° |
| 2026-05-01 07:24 | 34.71578 | 138.54439 | 33803 ft | 538 kts | 101° |
| 2026-05-01 07:24 | 34.71580 | 138.58971 | 33553 ft | 538 kts | 101° |
| 2026-05-01 07:24 | 34.71580 | 138.63463 | 33305 ft | 538 kts | 101° |
| 2026-05-01 07:24 | 34.71580 | 138.68021 | 32985 ft | 539 kts | 102° |
| 2026-05-01 07:25 | 34.71569 | 138.72636 | 32313 ft | 553 kts | 101° |
| 2026-05-01 07:25 | 34.71561 | 138.77319 | 31580 ft | 554 kts | 101° |
| 2026-05-01 07:25 | 34.71563 | 138.81908 | 30825 ft | 541 kts | 101° |
| 2026-05-01 07:25 | 34.71556 | 138.86395 | 29995 ft | 531 kts | 102° |
| 2026-05-01 07:26 | 34.71544 | 138.90828 | 29002 ft | 523 kts | 102° |
| 2026-05-01 07:26 | 34.71529 | 138.95229 | 28051 ft | 515 kts | 102° |
| 2026-05-01 07:26 | 34.71512 | 138.99545 | 27116 ft | 506 kts | 102° |
| 2026-05-01 07:26 | 34.71494 | 139.03761 | 26186 ft | 498 kts | 102° |
| 2026-05-01 07:27 | 34.71473 | 139.07915 | 25245 ft | 490 kts | 102° |
| 2026-05-01 07:27 | 34.71450 | 139.12003 | 24248 ft | 485 kts | 101° |
| 2026-05-01 07:27 | 34.71426 | 139.16051 | 23245 ft | 479 kts | 101° |
| 2026-05-01 07:27 | 34.71401 | 139.20046 | 22270 ft | 473 kts | 101° |
| 2026-05-01 07:28 | 34.71375 | 139.24025 | 21626 ft | 466 kts | 100° |
| 2026-05-01 07:28 | 34.71348 | 139.27920 | 21457 ft | 452 kts | 100° |
| 2026-05-01 07:28 | 34.71332 | 139.31613 | 21427 ft | 423 kts | 101° |
| 2026-05-01 07:28 | 34.71313 | 139.35065 | 21365 ft | 397 kts | 101° |
| 2026-05-01 07:29 | 34.71376 | 139.38359 | 20699 ft | 392 kts | 93° |
| 2026-05-01 07:29 | 34.71866 | 139.41602 | 19640 ft | 405 kts | 81° |
| 2026-05-01 07:29 | 34.72864 | 139.44817 | 18376 ft | 419 kts | 69° |
| 2026-05-01 07:29 | 34.74229 | 139.47926 | 17145 ft | 421 kts | 66° |
| 2026-05-01 07:30 | 34.75628 | 139.50986 | 16053 ft | 414 kts | 65° |
| 2026-05-01 07:30 | 34.77014 | 139.54011 | 14989 ft | 406 kts | 65° |
| 2026-05-01 07:30 | 34.78370 | 139.56975 | 14061 ft | 403 kts | 64° |
| 2026-05-01 07:30 | 34.79718 | 139.59926 | 13182 ft | 396 kts | 64° |
| 2026-05-01 07:31 | 34.81079 | 139.62917 | 12638 ft | 397 kts | 63° |
| 2026-05-01 07:31 | 34.86678 | 139.69997 | 12818 ft | 384 kts | 25° |
| 2026-05-01 07:32 | 34.91299 | 139.72334 | 12997 ft | 343 kts | 15° |
| 2026-05-01 07:32 | 34.93508 | 139.73358 | 12977 ft | 335 kts | 19° |
| 2026-05-01 07:33 | 34.97253 | 139.76810 | 12501 ft | 341 kts | 41° |
| 2026-05-01 07:33 | 34.99015 | 139.78772 | 12344 ft | 343 kts | 41° |
| 2026-05-01 07:33 | 35.02535 | 139.82700 | 11961 ft | 339 kts | 41° |
| 2026-05-01 07:34 | 35.04257 | 139.84627 | 11777 ft | 337 kts | 41° |
| 2026-05-01 07:34 | 35.07708 | 139.88490 | 11408 ft | 334 kts | 41° |
| 2026-05-01 07:34 | 35.09425 | 139.90410 | 11220 ft | 333 kts | 41° |
| 2026-05-01 07:35 | 35.11137 | 139.92331 | 11018 ft | 331 kts | 41° |
| 2026-05-01 07:35 | 35.12837 | 139.94240 | 10812 ft | 330 kts | 41° |
| 2026-05-01 07:35 | 35.14521 | 139.96132 | 10606 ft | 328 kts | 41° |
| 2026-05-01 07:35 | 35.16201 | 139.98019 | 10402 ft | 327 kts | 41° |
| 2026-05-01 07:36 | 35.17884 | 139.99913 | 10198 ft | 325 kts | 41° |
| 2026-05-01 07:36 | 35.19550 | 140.01787 | 9999 ft | 323 kts | 42° |
| 2026-05-01 07:36 | 35.21214 | 140.03659 | 9798 ft | 322 kts | 42° |
| 2026-05-01 07:36 | 35.22845 | 140.05490 | 9599 ft | 320 kts | 42° |
| 2026-05-01 07:37 | 35.26123 | 140.09192 | 9202 ft | 318 kts | 43° |
| 2026-05-01 07:37 | 35.27761 | 140.11049 | 9004 ft | 316 kts | 43° |
| 2026-05-01 07:37 | 35.29371 | 140.12875 | 8806 ft | 315 kts | 43° |
| 2026-05-01 07:38 | 35.30983 | 140.14702 | 8610 ft | 314 kts | 43° |
| 2026-05-01 07:38 | 35.32584 | 140.16522 | 8413 ft | 313 kts | 43° |
| 2026-05-01 07:38 | 35.35776 | 140.20128 | 7989 ft | 310 kts | 39° |
| 2026-05-01 07:39 | 35.37724 | 140.21358 | 7959 ft | 319 kts | 9° |
| 2026-05-01 07:39 | 35.39912 | 140.21645 | 7853 ft | 313 kts | 353° |
| 2026-05-01 07:39 | 35.44242 | 140.21323 | 7542 ft | 308 kts | 350° |
| 2026-05-01 07:40 | 35.46366 | 140.21117 | 7401 ft | 307 kts | 348° |
| 2026-05-01 07:40 | 35.48520 | 140.20900 | 7255 ft | 307 kts | 348° |
| 2026-05-01 07:40 | 35.50683 | 140.20674 | 7122 ft | 306 kts | 348° |
| 2026-05-01 07:40 | 35.52800 | 140.20407 | 6982 ft | 303 kts | 342° |
| 2026-05-01 07:41 | 35.54846 | 140.19836 | 6743 ft | 299 kts | 337° |
| 2026-05-01 07:41 | 35.56861 | 140.19142 | 6307 ft | 300 kts | 332° |
| 2026-05-01 07:41 | 35.59605 | 140.16103 | 5641 ft | 247 kts | 292° |
| 2026-05-01 07:42 | 35.60349 | 140.14334 | 5438 ft | 218 kts | 275° |
| 2026-05-01 07:42 | 35.60521 | 140.12613 | 5320 ft | 194 kts | 259° |
| 2026-05-01 07:42 | 35.60495 | 140.11038 | 5205 ft | 176 kts | 257° |
| 2026-05-01 07:42 | 35.60460 | 140.09576 | 5086 ft | 168 kts | 257° |
| 2026-05-01 07:43 | 35.60461 | 140.08148 | 4978 ft | 168 kts | 257° |
| 2026-05-01 07:43 | 35.60459 | 140.06689 | 4958 ft | 169 kts | 257° |
| 2026-05-01 07:43 | 35.60454 | 140.03777 | 4947 ft | 174 kts | 256° |
| 2026-05-01 07:44 | 35.60448 | 140.00655 | 3776 ft | 189 kts | 258° |
| 2026-05-01 07:44 | 35.60446 | 139.97603 | 3201 ft | 167 kts | 256° |
| 2026-05-01 07:45 | 35.60433 | 139.96231 | 2986 ft | 155 kts | 256° |
| 2026-05-01 07:45 | 35.60433 | 139.94913 | 2769 ft | 154 kts | 256° |
| 2026-05-01 07:45 | 35.60427 | 139.93613 | 2543 ft | 154 kts | 255° |
| 2026-05-01 07:45 | 35.60425 | 139.92302 | 2316 ft | 152 kts | 253° |
| 2026-05-01 07:46 | 35.60418 | 139.90996 | 2089 ft | 151 kts | 254° |
| 2026-05-01 07:46 | 35.60413 | 139.89687 | 1863 ft | 153 kts | 255° |
| 2026-05-01 07:46 | 35.60403 | 139.87030 | 1413 ft | 153 kts | 255° |
| 2026-05-01 07:47 | 35.60397 | 139.85745 | 1189 ft | 147 kts | 255° |
| 2026-05-01 07:47 | 35.60401 | 139.84489 | 976 ft | 148 kts | 258° |
| 2026-05-01 07:47 | 35.60400 | 139.83226 | 831 ft | 147 kts | 258° |
| 2026-05-01 07:47 | 35.60312 | 139.81985 | 757 ft | 146 kts | 247° |
| 2026-05-01 07:48 | 35.59244 | 139.79976 | 597 ft | 143 kts | 221° |
| 2026-05-01 07:48 | 35.58476 | 139.79172 | 407 ft | 145 kts | 212° |
| 2026-05-01 07:48 | 35.57623 | 139.78484 | 176 ft | 148 kts | 213° |
| 2026-05-01 07:49 | 35.56786 | 139.77745 | 72 ft | 147 kts | 212° |
| 2026-05-01 07:49 | 35.55331 | 139.76497 | 31 ft | 95 kts | 216° |
| 2026-05-01 07:49 | 35.55079 | 139.76334 | 29 ft | 25 kts | 195° |
| 2026-05-01 07:50 | 35.54957 | 139.76314 | 28 ft | 12 kts | 162° |
| 2026-05-01 07:50 | 35.54937 | 139.76417 | 29 ft | 5 kts | 53° |
| 2026-05-01 07:50 | 35.54961 | 139.76443 | 30 ft | 4 kts | 32° |
| 2026-05-01 07:51 | 35.54985 | 139.76465 | 30 ft | 3 kts | 39° |
| 2026-05-01 07:51 | 35.55004 | 139.76485 | 31 ft | 3 kts | 42° |
| 2026-05-01 07:51 | 35.55019 | 139.76500 | 31 ft | 2 kts | 39° |
| 2026-05-01 07:52 | 35.55081 | 139.76569 | 31 ft | 11 kts | 51° |
| 2026-05-01 07:52 | 35.55130 | 139.76662 | 31 ft | 13 kts | 59° |
| 2026-05-01 07:52 | 35.55175 | 139.76758 | 31 ft | 13 kts | 60° |
| 2026-05-01 07:53 | 35.55266 | 139.76952 | 31 ft | 12 kts | 64° |
| 2026-05-01 07:53 | 35.55254 | 139.77042 | 31 ft | 8 kts | 120° |
| 2026-05-01 07:53 | 35.55211 | 139.77080 | 31 ft | 7 kts | 149° |
| 2026-05-01 07:53 | 35.55169 | 139.77112 | 31 ft | 6 kts | 149° |
| 2026-05-01 07:54 | 35.55075 | 139.77179 | 31 ft | 10 kts | 150° |
| 2026-05-01 07:55 | 35.54913 | 139.77293 | 31 ft | 7 kts | 150° |
| 2026-05-01 07:55 | 35.54823 | 139.77277 | 31 ft | 7 kts | 231° |
| 2026-05-01 07:56 | 35.54741 | 139.77110 | 29 ft | 7 kts | 248° |
| 2026-05-01 07:56 | 35.54766 | 139.77029 | 30 ft | 4 kts | 317° |
| 2026-05-01 07:57 | 35.54786 | 139.77004 | 31 ft | 3 kts | 301° |
| 2026-05-01 07:57 | 35.54782 | 139.76939 | 32 ft | 4 kts | 248° |
| 2026-05-01 07:58 | 35.54767 | 139.76906 | 32 ft | 1 kts | 240° |
| 2026-05-01 07:58 | 35.54762 | 139.76895 | 32 ft | 0 kts | 240° |